Time;durP1;ratioP1;P1;durP2;ratioP2;P2;SDS_P1;SDS_P2;PMS_P1;PMS_P2;Temp;Humidity;BMP_temperature;BMP_pressure;BME280_temperature;BME280_humidity;BME280_pressure;Samples;Min_cycle;Max_cycle;Signal;HPM_P1;HPM_P2
2021/07/23 00:02:21;;;;;;;;;;;26.30;44.00;;;;;;8301626;28;19941;-50
2021/07/23 00:06:21;;;;;;;;;;;26.30;44.00;;;;;;8300995;28;20044;-50
2021/07/23 00:10:22;;;;;;;;;;;26.20;43.90;;;;;;8301053;28;19976;-52
2021/07/23 00:14:22;;;;;;;;;;;26.20;44.00;;;;;;8300431;28;20426;-52
2021/07/23 00:18:23;;;;;;;;;;;26.20;44.00;;;;;;8301433;28;20305;-49
2021/07/23 00:22:23;;;;;;;;;;;26.20;44.00;;;;;;8300808;28;19917;-52
2021/07/23 00:26:23;;;;;;;;;;;26.20;44.10;;;;;;8299972;28;19963;-52
2021/07/23 00:30:24;;;;;;;;;;;26.20;44.00;;;;;;8300675;28;19975;-51
2021/07/23 00:34:24;;;;;;;;;;;26.20;44.00;;;;;;8300407;28;19917;-51
2021/07/23 00:38:25;;;;;;;;;;;26.20;44.00;;;;;;8300311;28;19964;-51
2021/07/23 00:42:43;;;;;;;;;;;26.20;44.00;;;;;;8300084;28;20286;-52
2021/07/23 00:46:44;;;;;;;;;;;26.20;44.10;;;;;;8299710;28;19941;-49
2021/07/23 00:50:45;;;;;;;;;;;26.10;44.00;;;;;;8299938;28;19918;-49
2021/07/23 00:54:45;;;;;;;;;;;26.10;44.00;;;;;;8300470;28;20000;-50
2021/07/23 00:58:46;;;;;;;;;;;26.10;44.50;;;;;;8299051;28;19925;-50
2021/07/23 01:02:47;;;;;;;;;;;26.10;44.00;;;;;;8299528;28;19917;-49
2021/07/23 01:06:48;;;;;;;;;;;26.10;44.00;;;;;;8299521;28;19922;-50
2021/07/23 01:10:48;;;;;;;;;;;26.10;44.00;;;;;;8298717;28;20314;-50
2021/07/23 01:14:49;;;;;;;;;;;26.00;44.00;;;;;;8300000;28;19913;-50
2021/07/23 01:18:49;;;;;;;;;;;26.10;44.10;;;;;;8298899;28;19926;-48
2021/07/23 01:22:50;;;;;;;;;;;26.00;44.00;;;;;;8298486;28;19918;-49
2021/07/23 01:26:52;;;;;;;;;;;26.00;44.00;;;;;;8298980;28;19921;-50
2021/07/23 01:30:53;;;;;;;;;;;26.00;44.00;;;;;;8299360;28;19922;-50
2021/07/23 01:34:53;;;;;;;;;;;26.00;44.00;;;;;;8297404;28;19921;-53
2021/07/23 01:38:54;;;;;;;;;;;26.00;44.00;;;;;;8298638;28;19983;-50
2021/07/23 01:42:55;;;;;;;;;;;26.00;44.00;;;;;;8298315;28;19959;-49
2021/07/23 01:46:55;;;;;;;;;;;25.90;44.00;;;;;;8298449;28;19913;-50
2021/07/23 01:50:55;;;;;;;;;;;25.90;44.00;;;;;;8298396;28;19929;-49
2021/07/23 01:54:56;;;;;;;;;;;25.90;44.00;;;;;;8297993;28;19922;-51
2021/07/23 01:58:57;;;;;;;;;;;25.90;44.00;;;;;;8297419;28;19975;-52
2021/07/23 02:02:57;;;;;;;;;;;25.90;44.00;;;;;;8297855;28;19920;-48
2021/07/23 02:06:58;;;;;;;;;;;25.90;44.10;;;;;;8298510;28;19984;-52
2021/07/23 02:11:00;;;;;;;;;;;25.90;44.10;;;;;;8297305;28;19918;-50
2021/07/23 02:15:00;;;;;;;;;;;25.80;44.00;;;;;;8297788;28;19953;-50
2021/07/23 02:19:01;;;;;;;;;;;25.80;44.00;;;;;;8297747;28;19948;-50
2021/07/23 02:23:02;;;;;;;;;;;25.80;44.00;;;;;;8297873;28;19914;-49
2021/07/23 02:27:02;;;;;;;;;;;25.80;44.00;;;;;;8297535;28;19922;-49
2021/07/23 02:31:05;;;;;;;;;;;25.80;44.00;;;;;;8297306;28;19976;-49
2021/07/23 02:35:06;;;;;;;;;;;25.80;44.00;;;;;;8296927;28;19917;-50
2021/07/23 02:39:06;;;;;;;;;;;25.80;44.00;;;;;;8297529;28;19929;-52
2021/07/23 02:43:07;;;;;;;;;;;25.70;44.00;;;;;;8297424;28;19968;-51
2021/07/23 02:47:07;;;;;;;;;;;25.70;44.00;;;;;;8298676;28;19917;-50
2021/07/23 02:51:09;;;;;;;;;;;25.70;44.00;;;;;;8303543;28;19924;-51
2021/07/23 02:55:09;;;;;;;;;;;25.70;44.00;;;;;;8303341;28;19926;-53
2021/07/23 02:59:09;;;;;;;;;;;25.70;44.00;;;;;;8303377;28;20306;-49
2021/07/23 03:03:10;;;;;;;;;;;25.60;44.00;;;;;;8303246;28;19918;-52
2021/07/23 03:07:10;;;;;;;;;;;25.60;44.00;;;;;;8303489;28;19922;-51
2021/07/23 03:11:11;;;;;;;;;;;25.70;44.00;;;;;;8302540;28;19917;-50
2021/07/23 03:15:12;;;;;;;;;;;25.60;43.90;;;;;;8303664;28;19913;-50
2021/07/23 03:19:12;;;;;;;;;;;25.60;44.00;;;;;;8302599;28;19925;-50
2021/07/23 03:23:13;;;;;;;;;;;25.60;44.00;;;;;;8302105;28;20004;-49
2021/07/23 03:27:13;;;;;;;;;;;25.60;44.00;;;;;;8302472;28;19925;-50
2021/07/23 03:31:14;;;;;;;;;;;25.60;44.00;;;;;;8302636;28;19918;-51
2021/07/23 03:35:14;;;;;;;;;;;25.60;43.90;;;;;;8302443;28;19941;-51
2021/07/23 03:39:15;;;;;;;;;;;25.60;43.90;;;;;;8301928;28;19925;-49
2021/07/23 03:43:15;;;;;;;;;;;25.50;43.90;;;;;;8301999;28;20013;-53
2021/07/23 03:47:17;;;;;;;;;;;25.50;43.90;;;;;;8305728;28;19928;-50
2021/07/23 03:51:18;;;;;;;;;;;25.50;43.90;;;;;;8335427;28;20286;-50
2021/07/23 03:55:18;;;;;;;;;;;25.50;43.90;;;;;;8334246;28;19924;-52
2021/07/23 03:59:21;;;;;;;;;;;25.50;43.90;;;;;;8333021;28;20368;-49
2021/07/23 04:03:21;;;;;;;;;;;25.50;43.90;;;;;;8334118;28;19956;-50
2021/07/23 04:07:22;;;;;;;;;;;25.40;43.90;;;;;;8335240;28;19943;-49
2021/07/23 04:11:34;;;;;;;;;;;25.40;43.80;;;;;;8333619;28;19925;-51
2021/07/23 04:15:34;;;;;;;;;;;25.40;43.80;;;;;;8333564;28;19975;-48
2021/07/23 04:19:35;;;;;;;;;;;25.40;43.90;;;;;;8333425;28;19925;-50
2021/07/23 04:23:35;;;;;;;;;;;25.40;43.90;;;;;;8333104;28;19918;-49
2021/07/23 04:27:36;;;;;;;;;;;25.40;43.80;;;;;;8334408;28;20293;-50
2021/07/23 04:31:36;;;;;;;;;;;25.40;43.90;;;;;;8333076;28;20008;-49
2021/07/23 04:35:36;;;;;;;;;;;25.40;43.90;;;;;;8332617;28;20421;-49
2021/07/23 04:39:37;;;;;;;;;;;25.40;43.90;;;;;;8332942;28;19932;-50
2021/07/23 04:43:40;;;;;;;;;;;25.40;43.90;;;;;;8333573;28;19967;-49
2021/07/23 04:47:41;;;;;;;;;;;25.30;43.90;;;;;;8332326;28;19916;-48
2021/07/23 04:51:41;;;;;;;;;;;25.30;43.80;;;;;;8332562;28;19917;-52
2021/07/23 04:55:42;;;;;;;;;;;25.30;43.90;;;;;;8332470;28;19968;-50
2021/07/23 04:59:44;;;;;;;;;;;25.30;43.90;;;;;;8331856;28;19925;-49
2021/07/23 05:03:44;;;;;;;;;;;25.30;43.90;;;;;;8333292;28;20329;-49
2021/07/23 05:07:45;;;;;;;;;;;25.30;43.90;;;;;;8331473;28;19948;-52
2021/07/23 05:11:45;;;;;;;;;;;25.30;43.90;;;;;;8331068;28;20378;-51
2021/07/23 05:15:46;;;;;;;;;;;25.20;43.90;;;;;;8331794;28;19917;-48
2021/07/23 05:19:46;;;;;;;;;;;25.20;43.90;;;;;;8331966;28;20382;-49
2021/07/23 05:23:47;;;;;;;;;;;25.20;43.90;;;;;;8331409;28;19917;-49
2021/07/23 05:27:47;;;;;;;;;;;25.20;44.00;;;;;;8331491;28;19956;-52
2021/07/23 05:31:48;;;;;;;;;;;25.20;44.00;;;;;;8330810;28;19917;-51
2021/07/23 05:35:48;;;;;;;;;;;25.20;44.00;;;;;;8331742;28;19917;-50
2021/07/23 05:39:49;;;;;;;;;;;25.20;44.10;;;;;;8331037;28;20386;-48
2021/07/23 05:43:49;;;;;;;;;;;25.20;43.80;;;;;;8330520;28;19917;-52
2021/07/23 05:47:50;;;;;;;;;;;25.30;43.90;;;;;;8330851;28;20004;-48
2021/07/23 05:51:50;;;;;;;;;;;25.30;43.60;;;;;;8330975;28;20286;-49
2021/07/23 05:55:50;;;;;;;;;;;25.30;43.70;;;;;;8330766;28;19917;-48
2021/07/23 05:59:51;;;;;;;;;;;25.30;43.80;;;;;;8330432;28;19986;-49
2021/07/23 06:03:53;;;;;;;;;;;25.20;43.80;;;;;;8330287;28;19917;-49
2021/07/23 06:07:53;;;;;;;;;;;25.20;43.80;;;;;;8330011;28;19931;-49
2021/07/23 06:11:54;;;;;;;;;;;25.20;43.90;;;;;;8331341;28;20370;-51
2021/07/23 06:15:54;;;;;;;;;;;25.20;43.90;;;;;;8330388;28;20000;-49
2021/07/23 06:19:54;;;;;;;;;;;25.20;44.00;;;;;;8329625;28;19925;-50
2021/07/23 06:23:55;;;;;;;;;;;25.20;44.10;;;;;;8338647;28;20059;-49
2021/07/23 06:27:56;;;;;;;;;;;25.20;44.10;;;;;;8341661;28;20267;-49
2021/07/23 06:31:57;;;;;;;;;;;25.20;44.10;;;;;;8340576;28;19917;-51
2021/07/23 06:35:59;;;;;;;;;;;25.20;44.10;;;;;;8341051;28;20301;-49
2021/07/23 06:40:00;;;;;;;;;;;25.20;44.10;;;;;;8340739;28;20383;-49
2021/07/23 06:44:00;;;;;;;;;;;25.20;44.70;;;;;;8340569;28;19957;-49
2021/07/23 06:48:01;;;;;;;;;;;25.20;44.10;;;;;;8341451;28;19913;-50
2021/07/23 06:52:02;;;;;;;;;;;25.20;44.10;;;;;;8340492;28;19925;-49
2021/07/23 06:56:03;;;;;;;;;;;25.20;44.10;;;;;;8340110;28;20350;-49
2021/07/23 07:00:04;;;;;;;;;;;25.20;44.10;;;;;;8340754;28;19929;-51
2021/07/23 07:04:05;;;;;;;;;;;25.20;44.10;;;;;;8341265;28;20366;-52
2021/07/23 07:08:05;;;;;;;;;;;25.20;44.20;;;;;;8340002;28;20374;-50
2021/07/23 07:12:05;;;;;;;;;;;25.20;44.10;;;;;;8340698;28;19921;-51
2021/07/23 07:16:06;;;;;;;;;;;25.20;44.10;;;;;;8340463;28;19913;-50
2021/07/23 07:20:07;;;;;;;;;;;25.20;44.10;;;;;;8339723;28;19931;-50
2021/07/23 07:24:07;;;;;;;;;;;25.20;44.10;;;;;;8340904;28;19944;-49
2021/07/23 07:28:08;;;;;;;;;;;25.20;44.20;;;;;;8340078;28;20403;-51
2021/07/23 07:32:08;;;;;;;;;;;25.20;44.20;;;;;;8339536;28;19921;-52
2021/07/23 07:36:09;;;;;;;;;;;25.20;44.20;;;;;;8333866;28;19959;-52
2021/07/23 07:40:10;;;;;;;;;;;25.20;44.20;;;;;;8335510;28;20432;-49
2021/07/23 07:44:10;;;;;;;;;;;25.20;44.30;;;;;;8334063;28;19917;-51
2021/07/23 07:48:11;;;;;;;;;;;25.20;44.30;;;;;;8334677;28;20327;-50
2021/07/23 07:52:11;;;;;;;;;;;25.20;44.30;;;;;;8334357;28;19920;-49
2021/07/23 07:56:12;;;;;;;;;;;25.20;44.30;;;;;;8334441;28;20293;-52
2021/07/23 08:00:13;;;;;;;;;;;25.20;44.40;;;;;;8334170;28;20012;-50
2021/07/23 08:04:13;;;;;;;;;;;25.20;44.40;;;;;;8333343;28;20007;-49
2021/07/23 08:08:14;;;;;;;;;;;25.30;44.50;;;;;;8321964;28;19921;-50
2021/07/23 08:12:14;;;;;;;;;;;25.30;44.50;;;;;;8301032;28;19920;-53
2021/07/23 08:16:15;;;;;;;;;;;25.30;44.50;;;;;;8301813;28;19921;-51
2021/07/23 08:20:15;;;;;;;;;;;25.30;44.50;;;;;;8300259;28;20012;-50
2021/07/23 08:24:16;;;;;;;;;;;25.30;44.50;;;;;;8300980;28;19917;-50
2021/07/23 08:28:16;;;;;;;;;;;25.30;44.50;;;;;;8300733;28;19944;-49
2021/07/23 08:32:17;;;;;;;;;;;25.30;44.50;;;;;;8300761;28;19972;-50
2021/07/23 08:36:17;;;;;;;;;;;25.30;44.60;;;;;;8300760;28;19918;-49
2021/07/23 08:40:18;;;;;;;;;;;25.30;44.60;;;;;;8299997;28;19922;-51
2021/07/23 08:44:18;;;;;;;;;;;25.40;44.60;;;;;;8299411;28;19925;-48
2021/07/23 08:48:19;;;;;;;;;;;25.30;44.60;;;;;;8300520;28;19936;-51
2021/07/23 08:52:37;;;;;;;;;;;25.40;44.70;;;;;;8299799;28;20020;-51
2021/07/23 08:56:43;;;;;;;;;;;25.40;44.60;;;;;;8299375;28;20000;-49
2021/07/23 09:00:45;;;;;;;;;;;25.40;45.20;;;;;;8299781;28;19925;-51
2021/07/23 09:04:45;;;;;;;;;;;25.40;44.70;;;;;;8299080;28;19925;-52
2021/07/23 09:08:46;;;;;;;;;;;25.40;44.70;;;;;;8300827;28;19921;-51
2021/07/23 09:12:50;;;;;;;;;;;25.40;44.70;;;;;;8299253;28;19956;-52
2021/07/23 09:16:54;;;;;;;;;;;25.50;44.80;;;;;;8298615;28;19936;-49
2021/07/23 09:20:56;;;;;;;;;;;25.50;44.80;;;;;;8299268;28;20041;-50
2021/07/23 09:24:56;;;;;;;;;;;25.50;44.80;;;;;;8299168;28;20000;-49
2021/07/23 09:28:57;;;;;;;;;;;25.50;44.80;;;;;;8298981;28;19918;-51
2021/07/23 09:32:57;;;;;;;;;;;25.50;44.80;;;;;;8298615;28;20004;-49
2021/07/23 09:37:07;;;;;;;;;;;25.50;44.80;;;;;;8298430;28;20263;-49
2021/07/23 09:41:12;;;;;;;;;;;25.60;44.80;;;;;;8297915;28;19917;-51
2021/07/23 09:45:12;;;;;;;;;;;25.60;44.90;;;;;;8299199;28;19920;-48
2021/07/23 09:49:22;;;;;;;;;;;25.60;44.80;;;;;;8298115;28;19922;-52
2021/07/23 09:53:22;;;;;;;;;;;25.60;44.90;;;;;;8297513;28;20382;-47
2021/07/23 09:57:24;;;;;;;;;;;25.60;44.80;;;;;;8297698;28;19934;-49
2021/07/23 10:01:29;;;;;;;;;;;25.60;44.80;;;;;;8298024;28;20345;-49
2021/07/23 10:05:34;;;;;;;;;;;25.60;44.80;;;;;;8298114;28;20378;-48
2021/07/23 10:09:36;;;;;;;;;;;25.70;44.90;;;;;;8297655;28;20012;-50
2021/07/23 10:13:38;;;;;;;;;;;25.70;44.90;;;;;;8297801;28;19918;-47
2021/07/23 10:17:39;;;;;;;;;;;25.70;44.90;;;;;;8297163;28;19926;-51
2021/07/23 10:21:40;;;;;;;;;;;25.70;44.90;;;;;;8298274;28;19921;-49
2021/07/23 10:25:41;;;;;;;;;;;25.80;44.90;;;;;;8297531;28;19953;-48
2021/07/23 10:29:44;;;;;;;;;;;25.70;44.80;;;;;;8296903;28;19940;-47
2021/07/23 10:33:57;;;;;;;;;;;25.80;44.90;;;;;;8297494;28;19918;-50
2021/07/23 10:37:58;;;;;;;;;;;25.80;44.90;;;;;;8279419;28;19937;-48
2021/07/23 10:41:58;;;;;;;;;;;25.80;44.90;;;;;;8298046;28;19921;-51
2021/07/23 10:45:59;;;;;;;;;;;25.80;44.90;;;;;;8297083;28;20393;-49
2021/07/23 10:49:59;;;;;;;;;;;25.90;45.00;;;;;;8296628;28;19932;-48
2021/07/23 10:54:03;;;;;;;;;;;25.80;44.90;;;;;;8297083;28;19918;-48
2021/07/23 10:58:09;;;;;;;;;;;25.90;44.90;;;;;;8297819;28;20392;-48
2021/07/23 11:02:18;;;;;;;;;;;25.90;44.90;;;;;;8296463;28;19963;-51
2021/07/23 11:06:23;;;;;;;;;;;25.90;44.90;;;;;;8299672;28;19975;-48
2021/07/23 11:10:24;;;;;;;;;;;25.90;44.90;;;;;;8300737;28;19948;-49
2021/07/23 11:14:24;;;;;;;;;;;26.00;44.90;;;;;;8284851;28;20402;-51
2021/07/23 11:18:25;;;;;;;;;;;26.00;44.90;;;;;;8303566;28;19972;-52
2021/07/23 11:22:26;;;;;;;;;;;26.00;44.90;;;;;;8302794;28;20007;-49
2021/07/23 11:26:27;;;;;;;;;;;26.00;44.90;;;;;;8302090;28;20008;-52
2021/07/23 11:30:30;;;;;;;;;;;26.10;44.90;;;;;;8302778;28;19917;-49
2021/07/23 11:34:36;;;;;;;;;;;26.10;44.90;;;;;;8302924;28;20000;-48
2021/07/23 11:38:36;;;;;;;;;;;26.10;44.90;;;;;;8302053;28;19947;-49
2021/07/23 11:42:41;;;;;;;;;;;26.10;44.90;;;;;;8301878;28;20008;-48
2021/07/23 11:46:45;;;;;;;;;;;26.10;44.90;;;;;;8301745;28;20298;-48
2021/07/23 11:50:53;;;;;;;;;;;26.20;44.90;;;;;;8301423;28;19926;-51
2021/07/23 11:55:04;;;;;;;;;;;26.20;44.90;;;;;;8302436;28;19914;-48
2021/07/23 11:59:04;;;;;;;;;;;26.20;44.90;;;;;;8301282;28;19925;-49
2021/07/23 12:03:21;;;;;;;;;;;26.20;44.90;;;;;;8301345;28;19960;-48
2021/07/23 12:07:21;;;;;;;;;;;26.20;44.90;;;;;;8301946;28;19972;-49
2021/07/23 12:11:25;;;;;;;;;;;26.30;44.90;;;;;;8300738;28;20375;-48
2021/07/23 12:15:28;;;;;;;;;;;26.30;44.90;;;;;;8301027;28;21279;-51
2021/07/23 12:19:28;;;;;;;;;;;26.30;44.80;;;;;;8300146;28;19925;-49
2021/07/23 12:23:29;;;;;;;;;;;26.30;44.80;;;;;;8300212;28;20000;-51
2021/07/23 12:27:29;;;;;;;;;;;26.30;44.80;;;;;;8300900;28;19917;-51
2021/07/23 12:31:30;;;;;;;;;;;26.30;44.90;;;;;;8300907;28;19924;-50
2021/07/23 12:35:30;;;;;;;;;;;26.30;44.80;;;;;;8299967;28;19917;-49
2021/07/23 12:39:47;;;;;;;;;;;26.40;44.90;;;;;;8305358;28;20004;-50
2021/07/23 12:44:01;;;;;;;;;;;26.40;44.90;;;;;;8314838;28;20279;-46
2021/07/23 12:48:07;;;;;;;;;;;26.40;44.90;;;;;;8312509;28;20027;-50
2021/07/23 12:52:08;;;;;;;;;;;26.40;44.80;;;;;;8307277;28;19917;-49
2021/07/23 12:56:10;;;;;;;;;;;26.50;44.90;;;;;;8304643;28;19963;-50
2021/07/23 13:00:20;;;;;;;;;;;26.50;44.90;;;;;;8326063;28;20440;-48
2021/07/23 13:04:21;;;;;;;;;;;26.50;44.80;;;;;;8324535;28;19962;-51
2021/07/23 13:08:21;;;;;;;;;;;26.50;44.90;;;;;;8321046;28;19926;-51
2021/07/23 13:12:22;;;;;;;;;;;26.50;44.80;;;;;;8330201;28;19917;-49
2021/07/23 13:16:22;;;;;;;;;;;26.50;44.70;;;;;;8309366;28;19987;-48
2021/07/23 13:20:23;;;;;;;;;;;26.60;44.90;;;;;;8308645;28;20147;-47
2021/07/23 13:24:23;;;;;;;;;;;26.60;44.80;;;;;;8328263;28;19933;-49
2021/07/23 13:28:23;;;;;;;;;;;26.60;44.80;;;;;;8303019;28;20004;-50
2021/07/23 13:32:24;;;;;;;;;;;26.60;44.80;;;;;;8326073;28;19928;-52
2021/07/23 13:36:40;;;;;;;;;;;26.60;44.80;;;;;;8325828;28;20424;-47
2021/07/23 13:40:41;;;;;;;;;;;26.60;44.80;;;;;;8322109;28;19925;-51
2021/07/23 13:44:41;;;;;;;;;;;26.70;44.70;;;;;;8310573;28;20367;-50
2021/07/23 13:48:46;;;;;;;;;;;26.70;44.80;;;;;;8313321;28;19924;-48
2021/07/23 13:52:46;;;;;;;;;;;26.70;44.80;;;;;;8297596;28;19945;-52
2021/07/23 13:56:47;;;;;;;;;;;26.70;44.70;;;;;;8297950;28;20004;-48
2021/07/23 14:00:47;;;;;;;;;;;26.70;44.80;;;;;;8309918;28;20575;-49
2021/07/23 14:04:49;;;;;;;;;;;26.70;44.80;;;;;;8297945;28;19913;-49
2021/07/23 14:08:49;;;;;;;;;;;26.70;44.80;;;;;;8298017;28;19922;-49
2021/07/23 14:12:49;;;;;;;;;;;26.80;44.80;;;;;;8297431;28;19913;-49
2021/07/23 14:16:50;;;;;;;;;;;26.80;44.80;;;;;;8297181;28;19918;-48
2021/07/23 14:20:50;;;;;;;;;;;26.80;44.70;;;;;;8326038;28;19932;-51
2021/07/23 14:24:51;;;;;;;;;;;26.80;44.80;;;;;;8300490;28;20006;-52
2021/07/23 14:28:51;;;;;;;;;;;26.80;44.70;;;;;;8320800;28;20361;-51
2021/07/23 14:32:52;;;;;;;;;;;26.80;44.70;;;;;;8319965;28;20313;-50
2021/07/23 14:36:52;;;;;;;;;;;26.80;44.70;;;;;;8308932;28;19913;-49
2021/07/23 14:40:54;;;;;;;;;;;26.80;44.70;;;;;;8311792;28;19926;-51
2021/07/23 14:44:55;;;;;;;;;;;26.80;44.70;;;;;;8311165;28;19952;-52
2021/07/23 14:48:55;;;;;;;;;;;26.80;44.80;;;;;;8335275;28;19979;-50
2021/07/23 14:52:56;;;;;;;;;;;26.90;44.80;;;;;;8335978;28;20374;-50
2021/07/23 14:56:56;;;;;;;;;;;26.90;44.80;;;;;;8336731;28;19913;-50
2021/07/23 15:00:57;;;;;;;;;;;26.90;44.80;;;;;;8308704;28;19928;-49
2021/07/23 15:04:58;;;;;;;;;;;26.90;44.80;;;;;;8302690;28;19914;-50
2021/07/23 15:08:59;;;;;;;;;;;26.90;44.70;;;;;;8305491;28;19922;-49
2021/07/23 15:12:59;;;;;;;;;;;26.90;44.80;;;;;;8312109;28;20290;-48
2021/07/23 15:17:00;;;;;;;;;;;26.90;44.70;;;;;;8318339;28;19924;-49
2021/07/23 15:21:05;;;;;;;;;;;26.90;44.70;;;;;;8320494;28;19953;-49
2021/07/23 15:25:06;;;;;;;;;;;26.90;44.80;;;;;;8323093;28;19968;-51
2021/07/23 15:29:07;;;;;;;;;;;27.00;44.60;;;;;;8301786;28;20366;-48
2021/07/23 15:33:07;;;;;;;;;;;27.00;44.40;;;;;;8303406;28;19921;-50
2021/07/23 15:37:08;;;;;;;;;;;26.90;44.30;;;;;;8302026;28;19917;-51
2021/07/23 15:41:08;;;;;;;;;;;27.00;44.60;;;;;;8301601;28;19922;-49
2021/07/23 15:45:09;;;;;;;;;;;27.00;44.50;;;;;;8300889;28;20000;-48
2021/07/23 15:49:10;;;;;;;;;;;27.00;44.70;;;;;;8302358;28;19966;-48
2021/07/23 15:53:10;;;;;;;;;;;27.00;44.60;;;;;;8301354;28;19925;-51
2021/07/23 15:57:10;;;;;;;;;;;27.00;44.70;;;;;;8300510;28;19917;-50
2021/07/23 16:01:14;;;;;;;;;;;27.00;44.70;;;;;;8301185;28;20379;-48
2021/07/23 16:05:14;;;;;;;;;;;27.00;44.70;;;;;;8301493;28;19933;-49
2021/07/23 16:09:15;;;;;;;;;;;27.00;44.70;;;;;;8301519;28;19918;-51
2021/07/23 16:13:15;;;;;;;;;;;27.00;44.70;;;;;;8307872;28;19924;-47
2021/07/23 16:17:16;;;;;;;;;;;27.00;43.10;;;;;;8310001;28;19917;-46
2021/07/23 16:21:24;;;;;;;;;;;27.10;41.80;;;;;;8302978;28;19961;-46
2021/07/23 16:25:25;;;;;;;;;;;27.20;40.50;;;;;;8302235;28;19917;-46
2021/07/23 16:29:25;;;;;;;;;;;27.20;41.50;;;;;;8298870;28;19921;-46
2021/07/23 16:33:26;;;;;;;;;;;27.30;42.00;;;;;;8299511;28;19918;-46
2021/07/23 16:37:26;;;;;;;;;;;27.40;42.50;;;;;;8315925;28;19921;-49
2021/07/23 16:41:27;;;;;;;;;;;27.40;41.70;;;;;;8309628;28;19917;-46
2021/07/23 16:45:27;;;;;;;;;;;27.40;41.60;;;;;;8295800;28;19921;-47
2021/07/23 16:49:31;;;;;;;;;;;27.40;43.70;;;;;;8298039;28;19921;-46
2021/07/23 16:53:31;;;;;;;;;;;27.50;44.50;;;;;;8307681;28;20259;-47
2021/07/23 16:57:32;;;;;;;;;;;27.50;43.60;;;;;;8313128;28;19929;-46
2021/07/23 17:01:32;;;;;;;;;;;27.50;45.10;;;;;;8325309;28;19921;-45
2021/07/23 17:05:33;;;;;;;;;;;27.50;45.00;;;;;;8312318;28;19967;-46
2021/07/23 17:09:33;;;;;;;;;;;27.40;44.80;;;;;;8310668;28;19925;-46
2021/07/23 17:13:33;;;;;;;;;;;27.40;44.30;;;;;;8293350;28;19960;-45
2021/07/23 17:17:34;;;;;;;;;;;27.40;44.50;;;;;;8293246;28;19936;-45
2021/07/23 17:21:35;;;;;;;;;;;27.40;44.70;;;;;;8297262;28;19928;-45
2021/07/23 17:25:36;;;;;;;;;;;27.40;44.70;;;;;;8306155;28;20429;-47
2021/07/23 17:29:36;;;;;;;;;;;27.40;45.40;;;;;;8306705;28;20004;-46
2021/07/23 17:33:37;;;;;;;;;;;27.40;45.80;;;;;;8311839;28;19948;-44
2021/07/23 17:37:38;;;;;;;;;;;27.40;45.70;;;;;;8313488;28;20035;-44
2021/07/23 17:41:38;;;;;;;;;;;27.40;45.60;;;;;;8293414;28;19921;-43
2021/07/23 17:46:17;;;;;;;;;;;27.40;45.40;;;;;;8321777;28;20440;-45
2021/07/23 17:50:10;;;;;;;;;;;27.40;46.20;;;;;;8297940;28;19982;-44
2021/07/23 17:54:10;;;;;;;;;;;27.40;46.30;;;;;;8305504;28;20020;-44
2021/07/23 17:58:13;;;;;;;;;;;27.50;46.60;;;;;;8304422;28;20465;-44
2021/07/23 18:02:13;;;;;;;;;;;27.50;46.50;;;;;;8322493;28;19944;-46
2021/07/23 18:06:14;;;;;;;;;;;27.50;46.00;;;;;;8315789;28;19929;-44
2021/07/23 18:10:15;;;;;;;;;;;27.50;45.80;;;;;;8305786;28;19952;-45
2021/07/23 18:14:15;;;;;;;;;;;27.50;45.60;;;;;;8324004;28;19918;-43
2021/07/23 18:18:16;;;;;;;;;;;27.50;46.00;;;;;;8297363;28;19930;-47
2021/07/23 18:22:16;;;;;;;;;;;27.50;46.30;;;;;;8293306;28;19925;-47
2021/07/23 18:26:17;;;;;;;;;;;27.50;46.70;;;;;;8301894;28;20097;-46
2021/07/23 18:30:18;;;;;;;;;;;27.50;47.40;;;;;;8293555;28;19933;-49
2021/07/23 18:34:18;;;;;;;;;;;27.50;47.40;;;;;;8290830;28;20365;-47
2021/07/23 18:38:19;;;;;;;;;;;27.50;47.20;;;;;;8287358;28;19929;-44
2021/07/23 18:42:19;;;;;;;;;;;27.50;46.70;;;;;;8319603;28;19921;-49
2021/07/23 18:46:20;;;;;;;;;;;27.50;46.90;;;;;;8312960;28;20008;-47
2021/07/23 18:50:20;;;;;;;;;;;27.40;47.10;;;;;;8294173;28;20429;-46
2021/07/23 18:54:21;;;;;;;;;;;27.50;47.40;;;;;;8299483;28;20166;-45
2021/07/23 18:58:21;;;;;;;;;;;27.40;46.70;;;;;;8301802;28;19969;-45
2021/07/23 19:02:23;;;;;;;;;;;27.40;47.10;;;;;;8310255;28;20389;-50
2021/07/23 19:06:24;;;;;;;;;;;27.30;45.90;;;;;;8302065;28;20012;-49
2021/07/23 19:10:24;;;;;;;;;;;27.30;46.50;;;;;;8301095;28;19925;-52
2021/07/23 19:14:25;;;;;;;;;;;27.30;46.60;;;;;;8295249;28;20366;-54
2021/07/23 19:18:25;;;;;;;;;;;27.20;45.80;;;;;;8297157;28;19933;-52
2021/07/23 19:22:26;;;;;;;;;;;27.20;45.70;;;;;;8303362;28;19917;-48
2021/07/23 19:26:26;;;;;;;;;;;27.20;45.70;;;;;;8296712;28;20063;-48
2021/07/23 19:30:27;;;;;;;;;;;27.20;46.60;;;;;;8300423;28;20055;-47
2021/07/23 19:34:27;;;;;;;;;;;27.20;46.60;;;;;;8304945;28;19921;-51
2021/07/23 19:38:27;;;;;;;;;;;27.20;46.50;;;;;;8308713;28;20044;-51
2021/07/23 19:42:28;;;;;;;;;;;27.20;46.50;;;;;;8300786;28;19921;-49
2021/07/23 19:46:28;;;;;;;;;;;27.20;46.50;;;;;;8311204;28;19961;-47
2021/07/23 19:50:29;;;;;;;;;;;27.20;46.10;;;;;;8319478;28;20337;-49
2021/07/23 19:54:29;;;;;;;;;;;27.20;46.20;;;;;;8326108;28;19925;-53
2021/07/23 19:58:30;;;;;;;;;;;27.10;47.60;;;;;;8302219;28;19930;-48
2021/07/23 20:02:30;;;;;;;;;;;27.20;48.20;;;;;;8311426;28;19935;-52
2021/07/23 20:06:30;;;;;;;;;;;27.20;48.40;;;;;;8297618;28;19925;-48
2021/07/23 20:10:31;;;;;;;;;;;27.20;48.30;;;;;;8300372;28;20354;-49
2021/07/23 20:14:35;;;;;;;;;;;27.20;48.40;;;;;;8296917;28;20568;-56
2021/07/23 20:18:35;;;;;;;;;;;27.30;48.10;;;;;;8295465;28;19933;-49
2021/07/23 20:22:35;;;;;;;;;;;27.30;48.70;;;;;;8298725;28;19971;-51
2021/07/23 20:26:36;;;;;;;;;;;27.40;48.70;;;;;;8297868;28;19921;-48
2021/07/23 20:30:37;;;;;;;;;;;27.60;48.90;;;;;;8288795;28;19956;-49
2021/07/23 20:34:37;;;;;;;;;;;27.70;49.00;;;;;;8304572;28;19921;-52
2021/07/23 20:38:38;;;;;;;;;;;27.70;48.50;;;;;;8300137;28;19929;-50
2021/07/23 20:42:39;;;;;;;;;;;27.60;47.30;;;;;;8304848;28;19925;-46
2021/07/23 20:46:40;;;;;;;;;;;27.50;46.50;;;;;;8297526;28;19922;-48
2021/07/23 20:50:41;;;;;;;;;;;27.30;46.40;;;;;;8295326;28;20385;-50
2021/07/23 20:54:41;;;;;;;;;;;27.20;47.20;;;;;;8294580;28;19928;-47
2021/07/23 20:58:42;;;;;;;;;;;27.10;47.20;;;;;;8299363;28;19944;-46
2021/07/23 21:02:42;;;;;;;;;;;27.10;47.20;;;;;;8303733;28;20367;-48
2021/07/23 21:06:44;;;;;;;;;;;26.90;47.10;;;;;;8294105;28;19968;-52
2021/07/23 21:10:45;;;;;;;;;;;26.80;47.50;;;;;;8300294;28;20321;-46
2021/07/23 21:14:45;;;;;;;;;;;26.70;47.80;;;;;;8310624;28;19928;-45
2021/07/23 21:18:46;;;;;;;;;;;26.60;47.90;;;;;;8303084;28;19959;-47
2021/07/23 21:22:46;;;;;;;;;;;26.60;48.20;;;;;;8308062;28;19968;-47
2021/07/23 21:26:47;;;;;;;;;;;26.60;48.80;;;;;;8314252;28;19967;-52
2021/07/23 21:30:47;;;;;;;;;;;26.60;49.00;;;;;;8302562;28;19960;-51
2021/07/23 21:34:48;;;;;;;;;;;26.70;49.00;;;;;;8310619;28;20434;-52
2021/07/23 21:38:48;;;;;;;;;;;26.60;48.30;;;;;;8304108;28;20310;-52
2021/07/23 21:42:49;;;;;;;;;;;26.60;48.50;;;;;;8300153;28;19956;-51
2021/07/23 21:46:49;;;;;;;;;;;26.50;48.50;;;;;;8296384;28;19931;-55
2021/07/23 21:50:50;;;;;;;;;;;26.50;48.70;;;;;;8300031;28;19921;-52
2021/07/23 21:54:50;;;;;;;;;;;26.50;48.80;;;;;;8303707;28;19921;-54
2021/07/23 21:58:51;;;;;;;;;;;26.50;48.80;;;;;;8305059;28;19983;-49
2021/07/23 22:02:51;;;;;;;;;;;26.50;48.40;;;;;;8296843;28;19922;-50
2021/07/23 22:06:52;;;;;;;;;;;26.50;48.90;;;;;;8317354;28;19936;-55
2021/07/23 22:10:53;;;;;;;;;;;26.60;48.80;;;;;;8303567;28;19928;-48
2021/07/23 22:14:53;;;;;;;;;;;26.70;48.60;;;;;;8319774;28;19932;-47
2021/07/23 22:18:54;;;;;;;;;;;26.70;48.30;;;;;;8307679;28;19971;-47
2021/07/23 22:22:54;;;;;;;;;;;26.60;48.30;;;;;;8305906;28;20446;-43
2021/07/23 22:26:55;;;;;;;;;;;26.50;48.00;;;;;;8299219;28;20408;-47
2021/07/23 22:30:56;;;;;;;;;;;26.50;48.00;;;;;;8316356;28;19923;-46
2021/07/23 22:34:56;;;;;;;;;;;26.50;48.50;;;;;;8314059;28;19925;-46
2021/07/23 22:38:57;;;;;;;;;;;26.50;48.00;;;;;;8312366;28;19941;-47
2021/07/23 22:42:57;;;;;;;;;;;26.40;47.80;;;;;;8282232;28;19928;-51
2021/07/23 22:46:58;;;;;;;;;;;26.30;48.00;;;;;;8286786;28;19999;-48
2021/07/23 22:51:02;;;;;;;;;;;26.30;48.00;;;;;;8301605;28;19922;-51
2021/07/23 22:55:02;;;;;;;;;;;26.20;47.90;;;;;;8296890;28;20432;-52
2021/07/23 22:59:03;;;;;;;;;;;26.20;48.20;;;;;;8306711;28;20329;-49
2021/07/23 23:03:04;;;;;;;;;;;26.10;48.40;;;;;;8321320;28;19921;-54
2021/07/23 23:07:05;;;;;;;;;;;26.10;48.70;;;;;;8307020;28;19936;-53
2021/07/23 23:11:05;;;;;;;;;;;26.10;49.30;;;;;;8300349;28;19933;-51
2021/07/23 23:15:06;;;;;;;;;;;26.20;49.70;;;;;;8301993;28;20342;-53
2021/07/23 23:19:06;;;;;;;;;;;26.30;49.10;;;;;;8305215;28;19936;-50
2021/07/23 23:23:07;;;;;;;;;;;26.20;48.70;;;;;;8319167;28;19925;-47